Time;durP1;ratioP1;P1;durP2;ratioP2;P2;SDS_P1;SDS_P2;PMS_P1;PMS_P2;Temp;Humidity;BMP_temperature;BMP_pressure;BME280_temperature;BME280_humidity;BME280_pressure;Samples;Min_cycle;Max_cycle;Signal;HPM_P1;HPM_P2
2023/05/20 04:01:24;;;;;;;0.60;0.10;;;14.30;30.40;;;;;;5619770;23;20502;-73
2023/05/20 04:03:52;;;;;;;0.60;0.20;;;14.20;30.60;;;;;;4973502;28;20453;-71
2023/05/20 04:06:21;;;;;;;0.80;0.73;;;14.20;32.40;;;;;;4974348;28;20520;-72
2023/05/20 04:08:49;;;;;;;0.60;0.20;;;14.10;34.80;;;;;;4974105;28;20444;-72
2023/05/20 04:11:17;;;;;;;1.53;1.20;;;14.10;35.40;;;;;;4973718;28;20881;-72
2023/05/20 04:13:45;;;;;;;0.63;0.37;;;14.10;36.00;;;;;;4974139;28;20548;-72
2023/05/20 04:16:13;;;;;;;6.43;4.37;;;14.00;38.20;;;;;;4974769;28;20533;-72
2023/05/20 04:18:44;;;;;;;0.60;0.30;;;14.00;39.40;;;;;;4974077;28;20483;-72
2023/05/20 04:21:12;;;;;;;0.60;0.10;;;14.00;40.90;;;;;;4974220;28;20519;-71
2023/05/20 04:23:40;;;;;;;0.90;0.67;;;14.10;42.10;;;;;;4974846;28;20819;-71
2023/05/20 04:26:08;;;;;;;0.60;0.20;;;14.10;42.50;;;;;;4974061;28;20453;-71
2023/05/20 04:28:36;;;;;;;0.60;0.30;;;14.10;43.20;;;;;;4974180;28;20455;-72
2023/05/20 04:31:04;;;;;;;0.80;0.40;;;14.20;43.40;;;;;;4974266;28;20475;-72
2023/05/20 04:33:36;;;;;;;0.60;0.10;;;14.20;44.20;;;;;;4973723;28;20551;-72
2023/05/20 04:36:07;;;;;;;0.60;0.20;;;14.30;44.20;;;;;;4973776;28;20535;-72
2023/05/20 04:38:36;;;;;;;0.70;0.50;;;14.30;43.90;;;;;;4973888;28;20458;-72
2023/05/20 04:41:04;;;;;;;0.60;0.20;;;14.30;44.90;;;;;;4974124;28;21061;-72
2023/05/20 04:43:32;;;;;;;0.60;0.10;;;14.30;46.40;;;;;;4973997;28;20540;-72
2023/05/20 04:46:04;;;;;;;0.93;0.50;;;14.30;46.00;;;;;;4974459;28;20555;-71
2023/05/20 04:48:33;;;;;;;0.60;0.20;;;14.30;46.10;;;;;;4973982;28;20482;-72
2023/05/20 04:51:01;;;;;;;0.60;0.10;;;14.40;46.80;;;;;;4974101;28;20471;-71
2023/05/20 04:53:30;;;;;;;0.60;0.20;;;14.40;47.40;;;;;;4974022;28;20482;-71
2023/05/20 04:55:58;;;;;;;0.60;0.10;;;14.30;47.20;;;;;;4974699;28;20449;-71
2023/05/20 04:58:28;;;;;;;0.60;0.40;;;14.40;49.10;;;;;;4974388;28;20513;-71
2023/05/20 05:00:56;;;;;;;0.60;0.20;;;14.40;49.30;;;;;;4975990;28;20485;-71
2023/05/20 05:03:24;;;;;;;0.90;0.53;;;14.40;50.60;;;;;;4976193;28;20449;-71
2023/05/20 05:05:55;;;;;;;1.07;0.53;;;14.40;50.10;;;;;;4975624;28;20451;-71
2023/05/20 05:08:23;;;;;;;0.60;0.20;;;14.50;51.20;;;;;;4974590;28;20470;-72
2023/05/20 05:10:53;;;;;;;0.60;0.30;;;;;;;;;;4972652;28;20473;-72
2023/05/20 05:13:21;;;;;;;0.60;0.20;;;14.60;51.00;;;;;;4972982;28;20534;-72
2023/05/20 05:15:48;;;;;;;0.70;0.57;;;14.50;51.10;;;;;;4972992;28;20545;-72
2023/05/20 05:18:17;;;;;;;0.60;0.10;;;14.60;53.10;;;;;;4973097;28;20516;-73
2023/05/20 05:20:45;;;;;;;3.13;1.23;;;;;;;;;;4972981;28;20479;-72
2023/05/20 05:23:13;;;;;;;0.60;0.10;;;14.70;52.00;;;;;;4972784;28;20492;-72
2023/05/20 05:25:41;;;;;;;10.00;0.93;;;14.70;52.00;;;;;;4973363;28;20460;-72
2023/05/20 05:28:10;;;;;;;0.60;0.10;;;14.70;52.30;;;;;;4972879;28;20454;-71
2023/05/20 05:30:38;;;;;;;1.10;0.30;;;14.80;52.30;;;;;;4973153;28;20473;-71
2023/05/20 05:33:06;;;;;;;0.60;0.10;;;14.90;52.10;;;;;;4972612;28;20918;-71
2023/05/20 05:35:34;;;;;;;0.60;0.10;;;15.00;51.80;;;;;;4972960;28;20957;-72
2023/05/20 05:38:02;;;;;;;0.70;0.40;;;15.00;50.20;;;;;;4972943;28;20455;-72
2023/05/20 05:40:30;;;;;;;1.37;1.23;;;15.00;49.90;;;;;;4972950;28;20521;-73
2023/05/20 05:42:58;;;;;;;0.60;0.20;;;15.10;50.30;;;;;;4972556;28;20554;-72
2023/05/20 05:45:27;;;;;;;0.90;0.63;;;15.10;49.80;;;;;;4973235;28;20489;-72
2023/05/20 05:47:55;;;;;;;0.60;0.10;;;;;;;;;;4972825;28;20541;-72
2023/05/20 05:50:23;;;;;;;0.60;0.10;;;;;;;;;;4973482;28;20474;-73
2023/05/20 05:52:51;;;;;;;0.70;0.30;;;;;;;;;;4972807;28;20553;-71
2023/05/20 05:55:20;;;;;;;0.90;0.70;;;15.10;49.60;;;;;;4972868;28;20485;-72
2023/05/20 05:57:47;;;;;;;1.23;0.93;;;15.10;50.50;;;;;;4972610;28;20819;-72
2023/05/20 06:00:16;;;;;;;1.67;0.80;;;;;;;;;;4972907;28;20482;-73
2023/05/20 06:02:45;;;;;;;0.60;0.20;;;15.00;49.90;;;;;;4971985;28;20479;-72
2023/05/20 06:05:13;;;;;;;0.60;0.10;;;15.00;53.20;;;;;;4972804;28;20477;-73
2023/05/20 06:07:41;;;;;;;2.13;1.73;;;15.00;53.10;;;;;;4971372;28;21183;-73
2023/05/20 06:10:10;;;;;;;2.07;1.97;;;15.00;53.10;;;;;;4972230;28;20805;-72
2023/05/20 06:12:38;;;;;;;1.90;1.80;;;14.90;54.80;;;;;;4972162;28;20511;-72
2023/05/20 06:15:07;;;;;;;0.70;0.27;;;15.00;54.60;;;;;;4972852;28;20849;-72
2023/05/20 06:17:35;;;;;;;0.87;0.50;;;15.00;56.10;;;;;;4972224;28;20499;-72
2023/05/20 06:20:05;;;;;;;1.73;1.00;;;15.00;55.90;;;;;;4972974;28;20494;-72
2023/05/20 06:22:33;;;;;;;0.60;0.10;;;15.10;57.40;;;;;;4975723;28;20465;-71
2023/05/20 06:25:01;;;;;;;0.77;0.60;;;15.10;56.60;;;;;;4976221;28;20542;-73
2023/05/20 06:27:29;;;;;;;0.80;0.40;;;15.10;56.50;;;;;;4976018;28;20451;-71
2023/05/20 06:29:57;;;;;;;0.60;0.10;;;15.10;58.00;;;;;;4975896;28;20535;-72
2023/05/20 06:32:24;;;;;;;0.70;0.30;;;15.20;57.20;;;;;;4975862;28;20555;-73
2023/05/20 06:34:52;;;;;;;1.60;1.50;;;15.30;57.50;;;;;;4975826;28;20450;-73
2023/05/20 06:37:23;;;;;;;1.10;0.97;;;15.30;55.50;;;;;;4975875;28;20447;-73
2023/05/20 06:39:52;;;;;;;0.80;0.50;;;15.30;54.30;;;;;;4976299;28;20514;-71
2023/05/20 06:42:21;;;;;;;0.80;0.20;;;15.30;56.00;;;;;;4975367;28;20509;-71
2023/05/20 06:44:48;;;;;;;0.60;0.40;;;15.30;55.10;;;;;;4976212;28;20449;-71
2023/05/20 06:47:17;;;;;;;0.60;0.20;;;15.20;55.40;;;;;;4975968;28;20490;-72
2023/05/20 06:49:46;;;;;;;1.93;1.20;;;15.20;55.40;;;;;;4975806;28;20451;-71
2023/05/20 06:52:14;;;;;;;1.03;0.93;;;15.20;55.80;;;;;;4975621;28;20536;-71
2023/05/20 06:54:43;;;;;;;0.60;0.20;;;15.20;58.50;;;;;;4975395;28;20924;-72
2023/05/20 06:57:11;;;;;;;0.60;0.10;;;;;;;;;;4974704;28;20842;-72
2023/05/20 06:59:40;;;;;;;1.00;0.90;;;15.20;55.70;;;;;;4975382;28;20449;-71
2023/05/20 07:02:08;;;;;;;1.30;0.90;;;15.40;57.20;;;;;;4972983;28;20544;-69
2023/05/20 07:04:36;;;;;;;0.60;0.20;;;15.50;56.90;;;;;;4982075;28;20957;-72
2023/05/20 07:07:04;;;;;;;0.60;0.10;;;15.50;57.20;;;;;;4974808;28;20554;-71
2023/05/20 07:09:32;;;;;;;0.70;0.30;;;15.60;56.20;;;;;;4982866;28;20958;-72
2023/05/20 07:12:01;;;;;;;1.60;0.97;;;15.50;53.70;;;;;;4977892;28;20838;-71
2023/05/20 07:14:29;;;;;;;1.03;0.93;;;15.50;55.90;;;;;;4975459;28;20447;-71
2023/05/20 07:16:56;;;;;;;1.90;1.13;;;15.60;56.90;;;;;;4990427;28;20449;-72
2023/05/20 07:19:24;;;;;;;2.40;1.17;;;15.70;57.30;;;;;;4975410;28;21004;-72
2023/05/20 07:21:52;;;;;;;0.60;0.10;;;15.80;56.30;;;;;;4974326;28;20572;-72
2023/05/20 07:24:20;;;;;;;1.63;1.53;;;15.80;54.30;;;;;;4974972;28;20478;-72
2023/05/20 07:26:48;;;;;;;0.90;0.63;;;15.70;54.00;;;;;;4975034;28;20448;-72
2023/05/20 07:29:17;;;;;;;0.60;0.10;;;15.70;55.50;;;;;;4974554;28;20450;-71
2023/05/20 07:31:45;;;;;;;0.77;0.43;;;;;;;;;;4974838;28;20471;-72
2023/05/20 07:34:13;;;;;;;0.60;0.17;;;15.80;55.60;;;;;;4975047;28;20442;-73
2023/05/20 07:36:42;;;;;;;2.33;2.07;;;15.90;56.40;;;;;;4974832;28;20481;-73
2023/05/20 07:39:10;;;;;;;1.10;0.70;;;15.90;56.90;;;;;;4974884;28;20451;-72
2023/05/20 07:41:42;;;;;;;0.60;0.40;;;16.00;56.00;;;;;;4974084;28;20510;-72
2023/05/20 07:44:10;;;;;;;0.70;0.40;;;16.00;56.20;;;;;;4974628;28;20449;-72
2023/05/20 07:46:40;;;;;;;1.80;1.10;;;16.00;56.50;;;;;;4974624;28;20979;-71
2023/05/20 07:49:08;;;;;;;1.50;1.40;;;16.00;57.60;;;;;;4974681;28;20452;-72
2023/05/20 07:51:37;;;;;;;0.60;0.20;;;16.10;60.60;;;;;;4974865;28;20517;-71
2023/05/20 07:54:05;;;;;;;0.90;0.40;;;;;;;;;;4974250;28;20460;-72
2023/05/20 07:56:33;;;;;;;1.20;1.10;;;16.20;58.80;;;;;;4974473;28;20567;-72
2023/05/20 07:59:02;;;;;;;0.70;0.30;;;16.30;60.80;;;;;;4974711;28;20501;-72
2023/05/20 08:01:30;;;;;;;2.40;2.20;;;16.40;66.00;;;;;;4971706;28;20492;-68
2023/05/20 08:03:59;;;;;;;1.70;1.13;;;16.50;66.70;;;;;;4973922;28;20532;-68
2023/05/20 08:06:28;;;;;;;0.60;0.20;;;16.60;67.80;;;;;;4973210;28;20467;-69
2023/05/20 08:08:56;;;;;;;2.13;2.00;;;16.70;63.30;;;;;;4974158;28;20453;-69
2023/05/20 08:11:24;;;;;;;0.90;0.50;;;16.80;63.20;;;;;;4975135;28;20458;-68
2023/05/20 08:13:52;;;;;;;13.87;1.30;;;17.00;63.20;;;;;;4972606;28;20462;-69
2023/05/20 08:16:21;;;;;;;1.67;1.43;;;16.90;56.20;;;;;;4974647;28;20479;-69
2023/05/20 08:18:49;;;;;;;0.60;0.10;;;16.90;60.00;;;;;;4975971;28;20477;-69
2023/05/20 08:21:18;;;;;;;2.10;0.83;;;17.10;62.00;;;;;;4975874;28;20499;-70
2023/05/20 08:23:46;;;;;;;1.83;1.63;;;17.20;60.80;;;;;;4974479;28;20826;-70
2023/05/20 08:26:14;;;;;;;0.60;0.30;;;17.10;57.30;;;;;;4970633;28;21493;-70
2023/05/20 08:28:42;;;;;;;3.90;3.60;;;17.30;55.30;;;;;;4973493;28;20503;-68
2023/05/20 08:31:10;;;;;;;1.20;0.87;;;17.40;55.20;;;;;;4973882;28;20493;-69
2023/05/20 08:33:38;;;;;;;0.60;0.10;;;17.40;55.10;;;;;;4973951;28;20953;-71
2023/05/20 08:36:07;;;;;;;0.70;0.40;;;17.50;55.60;;;;;;4974385;28;20506;-72
2023/05/20 08:38:36;;;;;;;0.80;0.50;;;17.60;55.70;;;;;;4974898;28;20446;-71
2023/05/20 08:41:04;;;;;;;2.00;1.60;;;17.70;53.80;;;;;;4975615;28;20812;-72
2023/05/20 08:43:32;;;;;;;1.17;0.80;;;17.70;51.10;;;;;;4972801;28;20516;-70
2023/05/20 08:46:01;;;;;;;2.57;2.47;;;17.70;52.80;;;;;;4972853;28;20448;-73
2023/05/20 08:48:31;;;;;;;0.70;0.47;;;17.70;55.50;;;;;;4973673;28;20472;-73
2023/05/20 08:51:00;;;;;;;1.47;0.93;;;17.80;54.60;;;;;;4975015;28;20832;-72
2023/05/20 08:53:28;;;;;;;0.83;0.67;;;17.70;54.10;;;;;;4975433;28;20536;-72
2023/05/20 08:56:01;;;;;;;0.77;0.50;;;17.70;56.20;;;;;;4973059;28;20817;-72
2023/05/20 08:58:30;;;;;;;3.43;3.23;;;17.60;50.90;;;;;;4974888;28;20531;-72
2023/05/20 09:00:58;;;;;;;1.77;1.40;;;17.60;54.20;;;;;;4972852;28;20568;-71
2023/05/20 09:03:26;;;;;;;0.70;0.43;;;17.70;51.30;;;;;;4972763;28;20464;-70
2023/05/20 09:06:03;;;;;;;1.03;0.70;;;17.80;49.30;;;;;;4966203;28;20820;-72
2023/05/20 09:08:31;;;;;;;0.70;0.50;;;17.80;49.00;;;;;;4969922;28;20444;-73
2023/05/20 09:11:00;;;;;;;1.10;1.00;;;17.90;46.60;;;;;;4973880;28;20991;-72
2023/05/20 09:13:31;;;;;;;1.17;0.67;;;17.70;46.20;;;;;;4974004;28;20453;-74
2023/05/20 09:16:00;;;;;;;0.60;0.10;;;17.80;50.00;;;;;;4975551;28;20541;-70
2023/05/20 09:18:29;;;;;;;3.03;2.57;;;17.80;47.80;;;;;;4974929;28;20852;-73
2023/05/20 09:20:57;;;;;;;2.77;2.27;;;17.90;48.10;;;;;;4976257;28;20633;-72
2023/05/20 09:23:26;;;;;;;1.67;0.80;;;17.90;48.20;;;;;;4975356;28;21057;-73
2023/05/20 09:25:54;;;;;;;0.93;0.50;;;18.00;49.20;;;;;;4974513;28;20941;-72
2023/05/20 09:28:24;;;;;;;0.90;0.60;;;18.10;47.40;;;;;;4974471;28;20457;-72
2023/05/20 09:30:57;;;;;;;0.60;0.20;;;18.10;47.70;;;;;;4974918;28;20564;-73
2023/05/20 09:33:28;;;;;;;0.60;0.20;;;18.10;50.10;;;;;;4975553;28;20484;-73
2023/05/20 09:36:02;;;;;;;3.67;3.13;;;18.20;49.00;;;;;;4976778;28;20445;-72
2023/05/20 09:38:36;;;;;;;0.60;0.20;;;18.10;52.40;;;;;;4973972;28;20456;-69
2023/05/20 09:41:07;;;;;;;0.60;0.30;;;18.30;50.90;;;;;;4975911;28;20565;-72
2023/05/20 09:43:39;;;;;;;0.60;0.30;;;18.40;44.40;;;;;;4974230;28;20515;-72
2023/05/20 09:46:08;;;;;;;1.13;1.03;;;;;;;;;;4972992;28;20472;-71
2023/05/20 09:48:36;;;;;;;1.20;1.20;;;18.20;45.30;;;;;;4973241;28;20440;-72
2023/05/20 09:51:05;;;;;;;1.50;0.87;;;18.30;46.20;;;;;;4971597;28;21054;-72
2023/05/20 09:53:33;;;;;;;0.80;0.73;;;18.30;43.90;;;;;;4974449;28;20445;-72
2023/05/20 09:56:01;;;;;;;2.90;2.00;;;18.50;40.70;;;;;;4977876;28;20546;-72
2023/05/20 09:58:29;;;;;;;0.60;0.30;;;18.70;41.30;;;;;;4977783;28;20457;-72
2023/05/20 10:00:59;;;;;;;3.17;1.07;;;18.80;39.00;;;;;;4976705;28;20513;-71
2023/05/20 10:03:27;;;;;;;1.43;0.93;;;18.80;41.60;;;;;;4977991;28;20477;-72
2023/05/20 10:06:23;;;;;;;0.70;0.40;;;18.80;38.20;;;;;;4977962;28;20540;-73
2023/05/20 10:09:05;;;;;;;0.60;0.20;;;18.80;37.10;;;;;;4977794;28;20499;-73
2023/05/20 10:11:40;;;;;;;1.57;1.47;;;18.70;34.80;;;;;;4978516;28;20464;-72
2023/05/20 10:14:25;;;;;;;2.67;0.97;;;18.70;37.20;;;;;;4976112;28;20456;-72
2023/05/20 10:17:06;;;;;;;1.03;0.93;;;18.50;35.20;;;;;;4977788;28;20445;-74
2023/05/20 10:19:35;;;;;;;3.20;0.53;;;18.50;37.10;;;;;;4977077;28;20532;-72
2023/05/20 10:22:04;;;;;;;1.00;0.73;;;18.50;35.90;;;;;;4975762;28;20508;-72
2023/05/20 10:24:34;;;;;;;0.60;0.10;;;18.60;39.10;;;;;;4976191;28;20961;-72
2023/05/20 10:27:03;;;;;;;1.93;0.60;;;18.70;40.80;;;;;;4977037;28;20458;-73
2023/05/20 10:29:43;;;;;;;1.20;0.70;;;18.80;35.60;;;;;;4976601;28;20449;-72
2023/05/20 10:32:12;;;;;;;0.60;0.30;;;19.00;37.10;;;;;;4975987;28;20532;-72
2023/05/20 10:34:48;;;;;;;4.67;2.10;;;19.10;34.00;;;;;;4976935;28;20445;-72
2023/05/20 10:37:27;;;;;;;1.80;1.70;;;19.10;35.40;;;;;;4977022;28;20525;-72
2023/05/20 10:40:06;;;;;;;0.60;0.23;;;19.20;37.90;;;;;;4976828;28;20520;-72
2023/05/20 10:42:34;;;;;;;0.60;0.30;;;19.30;33.10;;;;;;4975483;28;20546;-72
2023/05/20 10:45:03;;;;;;;3.97;1.90;;;19.40;31.20;;;;;;4976267;28;21045;-73
2023/05/20 10:47:33;;;;;;;1.27;0.83;;;19.40;31.00;;;;;;4978163;28;20495;-72
2023/05/20 10:50:03;;;;;;;0.70;0.30;;;19.40;29.60;;;;;;4976509;28;20461;-72
2023/05/20 10:52:33;;;;;;;0.73;0.30;;;;;;;;;;4976675;28;21039;-73
2023/05/20 10:55:02;;;;;;;0.93;0.67;;;19.40;28.80;;;;;;4976636;28;20450;-72
2023/05/20 10:57:32;;;;;;;11.83;1.90;;;19.40;28.80;;;;;;4975423;28;20449;-73
2023/05/20 11:00:00;;;;;;;0.80;0.40;;;19.20;29.10;;;;;;4976421;28;20476;-73
2023/05/20 11:02:28;;;;;;;1.80;1.23;;;19.40;29.40;;;;;;4976146;28;20486;-72
2023/05/20 11:04:58;;;;;;;2.10;2.00;;;19.40;28.00;;;;;;4976167;28;20500;-73
2023/05/20 11:07:27;;;;;;;1.20;0.53;;;19.50;29.30;;;;;;4975493;28;20446;-72
2023/05/20 11:09:55;;;;;;;0.70;0.20;;;19.50;29.50;;;;;;4976325;28;20457;-73
2023/05/20 11:12:25;;;;;;;0.80;0.30;;;19.60;30.80;;;;;;4976535;28;20556;-73
2023/05/20 11:14:54;;;;;;;1.57;1.17;;;19.60;24.50;;;;;;4976087;28;20449;-73
2023/05/20 11:17:22;;;;;;;2.43;1.40;;;19.40;24.70;;;;;;4977297;28;20449;-73
2023/05/20 11:19:50;;;;;;;1.87;1.27;;;19.40;25.20;;;;;;4977813;28;20603;-72
2023/05/20 11:22:19;;;;;;;2.13;1.60;;;19.40;25.20;;;;;;4977707;28;20539;-74
2023/05/20 11:24:48;;;;;;;2.93;0.70;;;;;;;;;;4978275;28;20525;-74
2023/05/20 11:27:16;;;;;;;1.80;1.70;;;19.30;23.10;;;;;;4976665;28;20454;-73
2023/05/20 11:29:44;;;;;;;1.77;1.67;;;19.40;22.40;;;;;;4975576;28;20446;-73
2023/05/20 11:32:12;;;;;;;1.00;0.67;;;19.40;24.00;;;;;;4975660;28;20472;-73
2023/05/20 11:34:41;;;;;;;1.43;0.57;;;19.50;25.20;;;;;;4977148;28;20504;-73
2023/05/20 11:37:10;;;;;;;2.17;1.83;;;19.60;25.50;;;;;;4975598;28;20877;-73
2023/05/20 11:39:40;;;;;;;1.60;1.50;;;19.80;23.70;;;;;;4976283;28;20458;-74
2023/05/20 11:42:07;;;;;;;2.23;1.13;;;19.90;23.50;;;;;;4976059;28;20569;-73
2023/05/20 11:44:35;;;;;;;0.70;0.40;;;19.90;26.00;;;;;;4975721;28;20534;-73
2023/05/20 11:47:04;;;;;;;1.73;1.57;;;20.10;24.10;;;;;;4974764;28;20466;-73
2023/05/20 11:49:39;;;;;;;1.37;0.40;;;20.20;25.50;;;;;;4975537;28;20446;-73
2023/05/20 11:52:10;;;;;;;0.60;0.20;;;20.20;23.30;;;;;;4975376;28;20472;-73
2023/05/20 11:54:38;;;;;;;1.43;1.17;;;;;;;;;;4976377;28;20798;-74
2023/05/20 11:57:08;;;;;;;3.10;2.77;;;20.20;21.80;;;;;;4976022;28;21136;-73
2023/05/20 11:59:36;;;;;;;1.50;0.97;;;20.20;22.20;;;;;;4975116;28;20542;-75
2023/05/20 12:02:04;;;;;;;1.63;1.17;;;20.20;22.50;;;;;;4975333;28;20516;-73
2023/05/20 12:04:32;;;;;;;1.30;0.87;;;20.20;21.00;;;;;;4976528;28;20526;-74
2023/05/20 12:07:00;;;;;;;1.30;0.73;;;20.20;20.00;;;;;;4975339;28;21017;-72
2023/05/20 12:09:28;;;;;;;0.60;0.20;;;20.30;21.80;;;;;;4976280;28;20458;-74
2023/05/20 12:11:56;;;;;;;5.20;2.93;;;20.40;23.50;;;;;;4975321;28;20464;-73
2023/05/20 12:14:25;;;;;;;1.00;0.30;;;20.50;21.00;;;;;;4974894;28;20450;-74
2023/05/20 12:16:53;;;;;;;3.67;2.60;;;;;;;;;;4975657;28;20449;-73
2023/05/20 12:19:22;;;;;;;1.90;1.50;;;20.30;20.10;;;;;;4974023;28;20862;-75
2023/05/20 12:21:51;;;;;;;4.47;1.63;;;20.30;21.40;;;;;;4974427;28;20520;-73
2023/05/20 12:24:20;;;;;;;0.70;0.50;;;20.30;24.20;;;;;;4975396;28;20492;-73
2023/05/20 12:26:48;;;;;;;0.87;0.70;;;20.40;25.00;;;;;;4974054;28;20459;-72
2023/05/20 12:29:15;;;;;;;0.83;0.40;;;20.40;24.70;;;;;;4974534;28;20490;-72
2023/05/20 12:31:45;;;;;;;1.50;1.40;;;20.30;23.40;;;;;;4975852;28;20517;-73
2023/05/20 12:34:13;;;;;;;2.43;1.80;;;20.20;23.50;;;;;;4975167;28;20536;-72
2023/05/20 12:36:41;;;;;;;0.97;0.30;;;20.00;24.90;;;;;;4974745;28;20452;-74
2023/05/20 12:39:09;;;;;;;2.50;0.63;;;20.10;23.70;;;;;;4973966;28;20456;-73
2023/05/20 12:41:37;;;;;;;3.50;2.50;;;20.00;25.80;;;;;;4977487;28;20461;-73
2023/05/20 12:44:05;;;;;;;2.53;1.30;;;19.90;24.90;;;;;;4975795;28;20539;-72
2023/05/20 12:46:33;;;;;;;1.53;0.83;;;19.80;25.70;;;;;;4975740;28;20553;-72
2023/05/20 12:49:03;;;;;;;3.07;1.27;;;19.70;25.90;;;;;;4974915;28;20449;-72
2023/05/20 12:51:30;;;;;;;1.10;0.30;;;19.70;26.80;;;;;;4973835;28;20568;-73
2023/05/20 12:53:58;;;;;;;1.17;0.70;;;19.90;27.00;;;;;;4973606;28;20446;-73
2023/05/20 12:56:26;;;;;;;1.30;1.20;;;19.80;27.20;;;;;;4974784;28;20542;-72
2023/05/20 12:58:54;;;;;;;0.70;0.27;;;19.80;27.90;;;;;;4974930;28;20924;-72
2023/05/20 13:01:22;;;;;;;3.60;2.70;;;19.90;29.10;;;;;;4974100;28;20601;-72
2023/05/20 13:03:52;;;;;;;0.80;0.50;;;19.90;26.30;;;;;;4974623;28;20493;-72
2023/05/20 13:06:21;;;;;;;0.70;0.33;;;20.00;28.20;;;;;;4975078;28;20835;-73
2023/05/20 13:08:49;;;;;;;0.70;0.50;;;20.10;28.10;;;;;;4972947;28;20898;-73
2023/05/20 13:11:17;;;;;;;3.37;2.00;;;20.00;28.00;;;;;;4973229;28;20473;-73
2023/05/20 13:13:45;;;;;;;3.70;3.30;;;20.00;28.30;;;;;;4973011;28;20444;-72
2023/05/20 13:16:15;;;;;;;4.80;2.97;;;;;;;;;;4973742;28;20446;-72
2023/05/20 13:18:43;;;;;;;1.10;0.83;;;;;;;;;;4973824;28;20534;-73
2023/05/20 13:21:11;;;;;;;3.40;3.20;;;19.90;26.90;;;;;;4972666;28;20498;-71
2023/05/20 13:23:41;;;;;;;3.03;1.33;;;20.00;29.00;;;;;;4974451;28;20846;-73
2023/05/20 13:26:10;;;;;;;1.33;1.13;;;20.10;28.20;;;;;;4974496;28;20546;-72
2023/05/20 13:28:38;;;;;;;3.50;2.23;;;20.10;28.90;;;;;;4974013;28;20454;-74
2023/05/20 13:31:06;;;;;;;2.53;1.70;;;20.20;29.00;;;;;;4978187;28;20462;-73
2023/05/20 13:33:34;;;;;;;4.67;2.83;;;20.20;26.80;;;;;;4977986;28;20461;-73
2023/05/20 13:36:02;;;;;;;1.70;1.27;;;20.20;26.30;;;;;;4978007;28;20480;-73
2023/05/20 13:38:30;;;;;;;1.83;1.40;;;20.30;28.30;;;;;;4977605;28;20448;-73
2023/05/20 13:40:59;;;;;;;0.70;0.50;;;20.40;27.90;;;;;;4977156;28;21048;-73
2023/05/20 13:43:27;;;;;;;0.60;0.20;;;20.50;26.60;;;;;;4977313;28;20538;-73
2023/05/20 13:45:55;;;;;;;1.40;1.30;;;20.40;27.80;;;;;;4977558;28;20442;-73
2023/05/20 13:48:23;;;;;;;2.30;0.80;;;;;;;;;;4977068;28;20569;-73
2023/05/20 13:50:51;;;;;;;0.80;0.50;;;20.20;26.60;;;;;;4977667;28;20482;-75
2023/05/20 13:53:19;;;;;;;1.40;1.30;;;20.30;27.70;;;;;;4977296;28;20536;-73
2023/05/20 13:55:47;;;;;;;9.43;2.20;;;20.40;24.70;;;;;;4977296;28;20489;-73
2023/05/20 13:58:16;;;;;;;0.60;0.10;;;20.40;25.30;;;;;;4977013;28;20443;-73
2023/05/20 14:00:45;;;;;;;1.20;0.27;;;20.50;27.00;;;;;;4976582;28;20839;-73
2023/05/20 14:03:12;;;;;;;1.00;0.57;;;20.60;27.90;;;;;;4977073;28;20498;-73
2023/05/20 14:05:41;;;;;;;1.07;0.87;;;;;;;;;;4977014;28;20971;-73
2023/05/20 14:08:09;;;;;;;0.70;0.40;;;20.80;28.30;;;;;;4976758;28;20545;-73
2023/05/20 14:10:37;;;;;;;1.17;0.93;;;;;;;;;;4977291;28;20446;-73
2023/05/20 14:13:07;;;;;;;1.43;1.27;;;23.90;30.30;;;;;;4977062;28;20801;-72
2023/05/20 14:15:37;;;;;;;1.73;0.97;;;20.80;28.40;;;;;;4976784;28;20538;-73
2023/05/20 14:18:05;;;;;;;3.90;1.00;;;20.90;27.50;;;;;;4976899;28;20455;-73
2023/05/20 14:20:33;;;;;;;1.20;0.43;;;;;;;;;;4976570;28;20966;-73
2023/05/20 14:23:01;;;;;;;1.30;0.93;;;;;;;;;;4976439;28;20443;-73
2023/05/20 14:25:29;;;;;;;2.30;1.63;;;20.90;27.40;;;;;;4977197;28;20517;-74
2023/05/20 14:27:57;;;;;;;2.40;1.17;;;;;;;;;;4976646;28;20482;-73
2023/05/20 14:30:25;;;;;;;5.10;3.10;;;20.70;28.50;;;;;;4977149;28;21010;-73
2023/05/20 14:32:55;;;;;;;1.00;0.70;;;20.80;30.00;;;;;;4977268;28;20466;-72
2023/05/20 14:35:23;;;;;;;0.80;0.40;;;;;;;;;;4977453;28;20549;-72
2023/05/20 14:37:51;;;;;;;1.13;1.03;;;;;;;;;;4977768;28;20900;-72
2023/05/20 14:40:19;;;;;;;1.87;1.23;;;21.10;27.20;;;;;;4976662;28;20509;-73
2023/05/20 14:42:47;;;;;;;3.37;3.10;;;21.10;26.90;;;;;;4977325;28;20561;-72
2023/05/20 14:45:15;;;;;;;1.67;1.57;;;;;;;;;;4976698;28;21055;-72
2023/05/20 14:47:43;;;;;;;1.60;1.50;;;;;;;;;;4976674;28;20545;-73
2023/05/20 14:50:13;;;;;;;3.93;1.23;;;21.40;26.80;;;;;;4976618;28;20534;-72
2023/05/20 14:52:41;;;;;;;3.67;1.67;;;;;;;;;;4975919;28;20471;-72
2023/05/20 14:55:09;;;;;;;1.00;0.43;;;21.60;25.90;;;;;;4976182;28;20451;-73
2023/05/20 14:57:37;;;;;;;0.60;0.30;;;;;;;;;;4976683;28;20528;-74
2023/05/20 15:00:06;;;;;;;1.10;1.00;;;;;;;;;;4976266;28;20479;-73
2023/05/20 15:02:34;;;;;;;0.70;0.30;;;;;;;;;;4975539;28;20503;-72
2023/05/20 15:05:02;;;;;;;0.63;0.23;;;;;;;;;;4976833;28;20481;-74
2023/05/20 15:07:32;;;;;;;0.60;0.30;;;21.90;25.60;;;;;;4976064;28;20540;-73
2023/05/20 15:10:00;;;;;;;0.70;0.30;;;;;;;;;;4975947;28;20541;-72
2023/05/20 15:12:28;;;;;;;3.47;2.60;;;;;;;;;;4975642;28;20485;-72
2023/05/20 15:14:56;;;;;;;2.60;1.93;;;21.90;24.70;;;;;;4976810;28;20510;-73
2023/05/20 15:17:24;;;;;;;0.70;0.30;;;21.90;25.70;;;;;;4976972;28;20490;-73
2023/05/20 15:19:52;;;;;;;1.70;1.30;;;;;;;;;;4977383;28;20451;-73
2023/05/20 15:22:20;;;;;;;0.70;0.30;;;22.00;24.10;;;;;;4976745;28;20530;-73
2023/05/20 15:24:49;;;;;;;1.03;0.60;;;22.10;23.80;;;;;;4975613;28;20487;-73
2023/05/20 15:27:17;;;;;;;1.00;0.87;;;22.20;24.30;;;;;;4977266;28;20457;-74
2023/05/20 15:29:45;;;;;;;0.97;0.43;;;;;;;;;;4976325;28;20479;-72
2023/05/20 15:32:13;;;;;;;2.03;0.97;;;;;;;;;;4975678;28;20471;-73
2023/05/20 15:34:41;;;;;;;4.97;2.43;;;22.20;22.80;;;;;;4976593;28;20887;-73
2023/05/20 15:37:09;;;;;;;0.63;0.30;;;;;;;;;;4975976;28;20473;-72
2023/05/20 15:39:38;;;;;;;0.70;0.47;;;22.20;23.30;;;;;;4975867;28;20951;-73
2023/05/20 15:42:12;;;;;;;0.60;0.10;;;22.10;24.70;;;;;;4977101;28;20481;-73
2023/05/20 15:44:40;;;;;;;0.83;0.50;;;22.00;23.50;;;;;;4977546;28;20525;-73
2023/05/20 15:47:08;;;;;;;0.60;0.20;;;22.00;32.90;;;;;;4975709;28;21046;-73
2023/05/20 15:49:36;;;;;;;0.93;0.83;;;22.10;23.90;;;;;;4976555;28;20798;-73
2023/05/20 15:52:04;;;;;;;1.10;0.93;;;22.00;24.70;;;;;;4976102;28;20506;-72
2023/05/20 15:54:32;;;;;;;0.60;0.20;;;22.10;24.60;;;;;;4975664;28;20989;-74
2023/05/20 15:57:01;;;;;;;1.37;1.03;;;22.20;22.30;;;;;;4977309;28;20517;-71
2023/05/20 15:59:30;;;;;;;2.40;2.20;;;22.30;23.70;;;;;;4975650;28;20950;-73
2023/05/20 16:01:58;;;;;;;3.33;1.90;;;22.30;22.70;;;;;;4976098;28;20478;-74
2023/05/20 16:04:27;;;;;;;2.50;1.47;;;;;;;;;;4978442;28;20454;-73
2023/05/20 16:06:55;;;;;;;0.90;0.60;;;;;;;;;;4975517;28;20483;-72
2023/05/20 16:09:23;;;;;;;1.20;0.70;;;22.20;23.40;;;;;;4974739;28;20447;-73
2023/05/20 16:11:50;;;;;;;0.70;0.57;;;22.20;23.30;;;;;;4974590;28;20503;-73
2023/05/20 16:14:19;;;;;;;1.67;0.53;;;;;;;;;;4974817;28;20459;-72
2023/05/20 16:16:48;;;;;;;0.70;0.50;;;22.10;22.10;;;;;;4987459;23;20501;-70
2023/05/20 16:19:16;;;;;;;0.67;0.20;;;22.10;29.70;;;;;;4935093;29;20503;-68
2023/05/20 16:21:44;;;;;;;2.80;1.50;;;22.10;28.80;;;;;;4935861;29;20871;-70
2023/05/20 16:24:12;;;;;;;0.60;0.20;;;22.10;20.80;;;;;;4936035;29;20879;-70
2023/05/20 16:26:40;;;;;;;1.23;1.13;;;22.00;20.20;;;;;;4935664;29;21031;-69
2023/05/20 16:29:09;;;;;;;0.60;0.20;;;22.00;28.60;;;;;;4936071;29;20804;-71
2023/05/20 16:31:37;;;;;;;0.60;0.10;;;22.00;28.30;;;;;;4936050;29;20531;-69
2023/05/20 16:34:07;;;;;;;1.60;1.23;;;21.90;28.40;;;;;;4935755;29;20455;-70
2023/05/20 16:36:35;;;;;;;0.60;0.10;;;21.90;20.90;;;;;;4935730;29;20521;-70
2023/05/20 16:39:03;;;;;;;1.20;0.73;;;21.90;29.60;;;;;;4935566;29;20453;-72
2023/05/20 16:41:31;;;;;;;1.70;1.60;;;21.80;28.10;;;;;;4935686;29;20494;-69
2023/05/20 16:43:59;;;;;;;0.60;0.30;;;21.80;21.80;;;;;;4934912;29;20590;-70
2023/05/20 16:46:27;;;;;;;1.53;1.33;;;21.70;21.70;;;;;;4935118;29;20480;-71
2023/05/20 16:48:55;;;;;;;2.90;2.10;;;21.60;22.10;;;;;;4935873;29;20506;-69
2023/05/20 16:51:25;;;;;;;1.07;0.53;;;21.50;22.60;;;;;;4935675;29;20453;-70
2023/05/20 16:53:53;;;;;;;0.60;0.30;;;21.50;32.70;;;;;;4935121;29;20871;-70
2023/05/20 16:56:22;;;;;;;4.20;1.60;;;21.40;24.20;;;;;;4935461;29;20524;-68
2023/05/20 16:58:50;;;;;;;1.60;1.50;;;21.30;33.30;;;;;;4936563;29;20480;-72
2023/05/20 17:01:20;;;;;;;6.07;5.53;;;21.20;33.80;;;;;;4935219;29;20462;-71
2023/05/20 17:03:51;;;;;;;1.13;1.03;;;21.20;35.00;;;;;;4934671;29;20463;-70
2023/05/20 17:06:19;;;;;;;1.73;0.60;;;21.10;26.30;;;;;;4937963;29;20852;-69
2023/05/20 17:08:48;;;;;;;2.80;1.27;;;21.10;25.60;;;;;;4935632;29;20975;-68